createdAt,value
2018-03-24T00:00:30.409Z,5.47
2018-03-24T00:01:30.397Z,5.35
2018-03-24T00:02:30.381Z,5.33
2018-03-24T00:03:30.234Z,5.3
2018-03-24T00:04:30.435Z,5.29
2018-03-24T00:05:30.114Z,5.14
2018-03-24T00:06:29.875Z,5.17
2018-03-24T00:07:30.347Z,5.14
2018-03-24T00:08:30.093Z,5.04
2018-03-24T00:09:30.080Z,5.04
2018-03-24T00:10:30.333Z,4.93
2018-03-24T00:11:30.367Z,4.96
2018-03-24T00:12:30.321Z,4.92
2018-03-24T00:13:30.308Z,4.86
2018-03-24T00:14:30.337Z,4.8
2018-03-24T00:15:30.055Z,4.8
2018-03-24T00:16:30.027Z,4.68
2018-03-24T00:17:30.420Z,4.75
2018-03-24T00:18:30.258Z,4.67
2018-03-24T00:19:29.994Z,4.7
2018-03-24T00:20:29.998Z,4.58
2018-03-24T00:21:30.403Z,4.55
2018-03-24T00:22:30.419Z,4.52
2018-03-24T00:23:30.538Z,4.52
2018-03-24T00:24:30.138Z,4.52
2018-03-24T00:25:30.127Z,4.49
2018-03-24T00:26:30.250Z,4.42
2018-03-24T00:27:30.300Z,4.34
2018-03-24T00:28:30.317Z,4.34
2018-03-24T00:29:30.061Z,4.34
2018-03-24T00:30:30.498Z,4.28
2018-03-24T00:31:30.374Z,4.28
2018-03-24T00:32:30.160Z,4.28
2018-03-24T00:33:30.060Z,4.17
2018-03-24T00:34:29.707Z,4.23
2018-03-24T00:35:30.717Z,4.19
2018-03-24T00:36:30.403Z,4.05
2018-03-24T00:37:29.893Z,4.01
2018-03-24T00:38:30.421Z,4.05
2018-03-24T00:39:30.129Z,3.99
2018-03-24T00:40:30.307Z,3.94
2018-03-24T00:41:30.035Z,3.96
2018-03-24T00:42:30.319Z,3.98
2018-03-24T00:43:30.370Z,3.88
2018-03-24T00:44:30.274Z,3.88
2018-03-24T00:45:29.669Z,3.83
2018-03-24T00:46:29.913Z,3.81
2018-03-24T00:47:29.852Z,3.74
2018-03-24T00:48:30.031Z,3.8
2018-03-24T00:49:29.997Z,3.78
2018-03-24T00:50:30.516Z,3.76
2018-03-24T00:51:30.179Z,3.66
2018-03-24T00:52:29.833Z,3.68
2018-03-24T00:53:30.269Z,3.59
2018-03-24T00:54:29.899Z,3.6
2018-03-24T00:55:30.362Z,3.65
2018-03-24T00:56:30.127Z,3.62
2018-03-24T00:57:29.899Z,3.62
2018-03-24T00:58:29.847Z,3.6
2018-03-24T00:59:29.656Z,3.6
2018-03-24T01:00:30.239Z,3.59
2018-03-24T01:01:30.272Z,3.56
2018-03-24T01:02:30.138Z,3.56
2018-03-24T01:03:30.090Z,3.48
2018-03-24T01:04:30.388Z,3.48
2018-03-24T01:05:29.861Z,3.55
2018-03-24T01:06:31.140Z,3.5
2018-03-24T01:07:31.174Z,3.51
2018-03-24T01:08:29.826Z,3.41
2018-03-24T01:09:29.494Z,3.45
2018-03-24T01:10:30.060Z,3.42
2018-03-24T01:11:29.833Z,3.37
2018-03-24T01:12:29.713Z,3.36
2018-03-24T01:13:29.562Z,3.34
2018-03-24T01:14:29.976Z,3.23
2018-03-24T01:15:30.028Z,3.29
2018-03-24T01:16:29.506Z,3.23
2018-03-24T01:17:29.962Z,3.28
2018-03-24T01:18:30.002Z,3.28
2018-03-24T01:19:29.676Z,3.31
2018-03-24T01:20:29.964Z,3.25
2018-03-24T01:21:30.050Z,3.26
2018-03-24T01:22:29.758Z,3.28
2018-03-24T01:23:29.673Z,3.23
2018-03-24T01:24:29.799Z,3.08
2018-03-24T01:25:30.636Z,3.21
2018-03-24T01:26:29.280Z,3.23
2018-03-24T01:27:29.355Z,3.11
2018-03-24T01:28:29.149Z,3.1
2018-03-24T01:29:29.264Z,3.1
2018-03-24T01:30:29.541Z,3.13
2018-03-24T01:31:29.636Z,3.1
2018-03-24T01:32:29.481Z,3.18
2018-03-24T01:33:29.349Z,3.13
2018-03-24T01:34:29.592Z,2.95
2018-03-24T01:35:29.354Z,2.98
2018-03-24T01:36:29.580Z,2.86
2018-03-24T01:37:29.567Z,2.86
2018-03-24T01:38:29.560Z,2.77
2018-03-24T01:39:29.048Z,2.8
2018-03-24T01:40:29.550Z,2.79
2018-03-24T01:41:29.588Z,2.67
2018-03-24T01:42:29.525Z,2.72
2018-03-24T01:43:29.271Z,2.74
2018-03-24T01:44:29.507Z,2.64
2018-03-24T01:45:29.491Z,2.64
2018-03-24T01:46:29.233Z,2.64
2018-03-24T01:47:29.492Z,2.67
2018-03-24T01:48:29.455Z,2.57
2018-03-24T01:49:29.205Z,2.65
2018-03-24T01:50:29.178Z,2.57
2018-03-24T01:51:29.224Z,2.69
2018-03-24T01:52:29.488Z,2.8
2018-03-24T01:53:29.403Z,2.67
2018-03-24T01:54:28.952Z,2.69
2018-03-24T01:55:29.392Z,2.8
2018-03-24T01:56:29.120Z,2.8
2018-03-24T01:57:29.172Z,2.79
2018-03-24T01:58:29.467Z,2.77
2018-03-24T01:59:28.838Z,2.74
2018-03-24T02:00:29.359Z,2.72
2018-03-24T02:01:29.347Z,2.72
2018-03-24T02:02:29.324Z,2.62
2018-03-24T02:03:29.325Z,2.64
2018-03-24T02:04:29.044Z,2.64
2018-03-24T02:05:29.292Z,2.54
2018-03-24T02:06:29.337Z,2.51
2018-03-24T02:07:29.015Z,2.56
2018-03-24T02:08:29.286Z,2.54
2018-03-24T02:09:29.001Z,2.49
2018-03-24T02:10:28.987Z,2.53
2018-03-24T02:11:29.234Z,2.57
2018-03-24T02:12:28.989Z,2.62
2018-03-24T02:13:29.298Z,2.54
2018-03-24T02:14:29.215Z,2.53
2018-03-24T02:15:28.943Z,2.64
2018-03-24T02:16:29.198Z,2.6
2018-03-24T02:17:28.933Z,2.54
2018-03-24T02:18:29.162Z,2.6
2018-03-24T02:19:28.935Z,2.39
2018-03-24T02:20:28.912Z,2.39
2018-03-24T02:21:28.633Z,2.36
2018-03-24T02:22:29.119Z,2.29
2018-03-24T02:23:28.858Z,2.2
2018-03-24T02:24:28.849Z,2.22
2018-03-24T02:25:28.590Z,2.18
2018-03-24T02:26:28.887Z,2.22
2018-03-24T02:27:28.837Z,2.2
2018-03-24T02:28:29.094Z,2.04
2018-03-24T02:29:28.837Z,2.17
2018-03-24T02:30:28.798Z,2.13
2018-03-24T02:31:28.777Z,2.07
2018-03-24T02:32:29.093Z,2.11
2018-03-24T02:33:28.772Z,2.15
2018-03-24T02:34:28.520Z,2.1
2018-03-24T02:35:28.746Z,2.17
2018-03-24T02:36:28.979Z,2.26
2018-03-24T02:37:28.979Z,2.25
2018-03-24T02:38:29.032Z,2.25
2018-03-24T02:39:28.763Z,2.31
2018-03-24T02:40:28.995Z,2.32
2018-03-24T02:41:28.961Z,2.24
2018-03-24T02:42:28.961Z,2.26
2018-03-24T02:43:28.939Z,2.26
2018-03-24T02:44:28.918Z,2.17
2018-03-24T02:45:28.894Z,2.1
2018-03-24T02:46:28.634Z,2.11
2018-03-24T02:47:28.875Z,2.17
2018-03-24T02:48:28.871Z,2.1
2018-03-24T02:49:28.869Z,2.13
2018-03-24T02:50:28.853Z,2.28
2018-03-24T02:51:28.854Z,2.26
2018-03-24T02:52:28.833Z,2.18
2018-03-24T02:53:28.823Z,2.14
2018-03-24T02:54:28.801Z,2.14
2018-03-24T02:55:28.798Z,2.14
2018-03-24T02:56:28.828Z,2.08
2018-03-24T02:57:28.529Z,2.15
2018-03-24T02:58:28.505Z,2.17
2018-03-24T02:59:28.913Z,2.25
2018-03-24T03:00:28.777Z,2.26
2018-03-24T03:01:28.740Z,2.26
2018-03-24T03:02:28.739Z,2.25
2018-03-24T03:03:28.463Z,2.24
2018-03-24T03:04:28.748Z,2.24
2018-03-24T03:05:28.704Z,2.24
2018-03-24T03:06:28.428Z,2.13
2018-03-24T03:07:28.412Z,2.11
2018-03-24T03:08:28.406Z,2.06
2018-03-24T03:09:28.406Z,2.06
2018-03-24T03:10:28.639Z,2.07
2018-03-24T03:11:28.388Z,2.06
2018-03-24T03:12:28.640Z,2.08
2018-03-24T03:13:28.366Z,2.02
2018-03-24T03:14:28.356Z,1.91
2018-03-24T03:15:28.602Z,1.94
2018-03-24T03:16:28.573Z,1.99
2018-03-24T03:17:28.561Z,1.88
2018-03-24T03:18:28.552Z,1.92
2018-03-24T03:19:28.289Z,1.87
2018-03-24T03:20:28.540Z,1.85
2018-03-24T03:21:28.521Z,1.87
2018-03-24T03:22:28.632Z,1.8
2018-03-24T03:23:28.247Z,1.92
2018-03-24T03:24:28.001Z,1.87
2018-03-24T03:25:28.688Z,1.89
2018-03-24T03:26:28.468Z,1.81
2018-03-24T03:27:28.207Z,1.78
2018-03-24T03:28:28.460Z,1.87
2018-03-24T03:29:28.449Z,1.88
2018-03-24T03:30:28.440Z,1.8
2018-03-24T03:31:28.451Z,1.91
2018-03-24T03:32:28.148Z,1.81
2018-03-24T03:33:28.413Z,1.91
2018-03-24T03:34:30.338Z,1.84
2018-03-24T03:35:28.155Z,1.76
2018-03-24T03:36:28.360Z,1.77
2018-03-24T03:37:28.360Z,1.76
2018-03-24T03:38:28.094Z,1.77
2018-03-24T03:39:28.089Z,1.77
2018-03-24T03:40:28.327Z,1.66
2018-03-24T03:41:28.319Z,1.58
2018-03-24T03:42:28.547Z,1.6
2018-03-24T03:43:28.523Z,1.5
2018-03-24T03:44:28.260Z,1.55
2018-03-24T03:45:28.181Z,1.55
2018-03-24T03:46:28.180Z,1.53
2018-03-24T03:47:28.517Z,1.53
2018-03-24T03:48:28.138Z,1.52
2018-03-24T03:49:28.223Z,1.52
2018-03-24T03:50:28.162Z,1.45
2018-03-24T03:51:27.852Z,1.44
2018-03-24T03:52:28.536Z,1.5
2018-03-24T03:53:28.088Z,1.44
2018-03-24T03:54:28.046Z,1.48
2018-03-24T03:55:28.162Z,1.41
2018-03-24T03:56:28.372Z,1.44
2018-03-24T03:57:28.022Z,1.42
2018-03-24T03:58:28.042Z,1.37
2018-03-24T03:59:28.357Z,1.41
2018-03-24T04:00:28.038Z,1.34
2018-03-24T04:01:27.726Z,1.34
2018-03-24T04:02:28.292Z,1.37
2018-03-24T04:03:28.043Z,1.34
2018-03-24T04:04:28.252Z,1.5
2018-03-24T04:05:29.914Z,1.42
2018-03-24T04:06:28.054Z,1.48
2018-03-24T04:07:28.499Z,1.41
2018-03-24T04:08:28.304Z,1.4
2018-03-24T04:09:28.169Z,1.44
2018-03-24T04:10:28.841Z,1.48
2018-03-24T04:11:28.417Z,1.49
2018-03-24T04:12:27.919Z,1.38
2018-03-24T04:13:27.938Z,1.4
2018-03-24T04:14:27.966Z,1.41
2018-03-24T04:15:29.146Z,1.4
2018-03-24T04:16:28.162Z,1.38
2018-03-24T04:17:28.209Z,1.37
2018-03-24T04:18:28.180Z,1.35
2018-03-24T04:19:27.631Z,1.37
2018-03-24T04:20:28.100Z,1.32
2018-03-24T04:21:27.921Z,1.28
2018-03-24T04:22:28.207Z,1.41
2018-03-24T04:23:27.486Z,1.45
2018-03-24T04:24:27.793Z,1.37
2018-03-24T04:25:27.764Z,1.4
2018-03-24T04:26:27.748Z,1.41
2018-03-24T04:27:27.528Z,1.45
2018-03-24T04:28:27.971Z,1.53
2018-03-24T04:29:27.724Z,1.53
2018-03-24T04:30:28.025Z,1.5
2018-03-24T04:31:27.806Z,1.53
2018-03-24T04:32:27.964Z,1.58
2018-03-24T04:33:27.676Z,1.44
2018-03-24T04:34:27.770Z,1.48
2018-03-24T04:35:27.535Z,1.42
2018-03-24T04:36:27.781Z,1.45
2018-03-24T04:37:27.746Z,1.48
2018-03-24T04:38:27.450Z,1.44
2018-03-24T04:39:27.710Z,1.42
2018-03-24T04:40:27.444Z,1.34
2018-03-24T04:41:27.163Z,1.42
2018-03-24T04:42:27.662Z,1.44
2018-03-24T04:43:27.667Z,1.37
2018-03-24T04:44:27.682Z,1.34
2018-03-24T04:45:27.638Z,1.31
2018-03-24T04:46:27.111Z,1.35
2018-03-24T04:47:27.096Z,1.32
2018-03-24T04:48:27.601Z,1.3
2018-03-24T04:49:27.341Z,1.22
2018-03-24T04:50:27.572Z,1.22
2018-03-24T04:51:27.056Z,1.23
2018-03-24T04:52:27.618Z,1.24
2018-03-24T04:53:27.551Z,1.17
2018-03-24T04:54:27.532Z,1.13
2018-03-24T04:55:27.525Z,1.12
2018-03-24T04:56:27.265Z,1.08
2018-03-24T04:57:27.509Z,1.2
2018-03-24T04:58:27.489Z,1.16
2018-03-24T04:59:27.244Z,1.12
2018-03-24T05:00:27.472Z,1.14
2018-03-24T05:01:27.464Z,1.12
2018-03-24T05:02:27.440Z,1.14
2018-03-24T05:03:27.176Z,1.24
2018-03-24T05:04:27.423Z,1.26
2018-03-24T05:05:27.448Z,1.23
2018-03-24T05:06:27.400Z,1.2
2018-03-24T05:07:27.393Z,1.14
2018-03-24T05:08:27.129Z,1.2
2018-03-24T05:09:27.371Z,1.17
2018-03-24T05:10:27.353Z,1.19
2018-03-24T05:11:26.843Z,1.2
2018-03-24T05:12:27.338Z,1.28
2018-03-24T05:13:27.319Z,1.32
2018-03-24T05:14:27.339Z,1.26
2018-03-24T05:15:27.311Z,1.22
2018-03-24T05:16:27.308Z,1.22
2018-03-24T05:17:26.784Z,1.26
2018-03-24T05:18:27.017Z,1.24
2018-03-24T05:19:27.256Z,1.37
2018-03-24T05:20:27.252Z,1.35
2018-03-24T05:21:27.252Z,1.37
2018-03-24T05:22:27.230Z,1.28
2018-03-24T05:23:26.960Z,1.32
2018-03-24T05:24:27.205Z,1.38
2018-03-24T05:25:27.191Z,1.42
2018-03-24T05:26:26.937Z,1.38
2018-03-24T05:27:27.167Z,1.44
2018-03-24T05:28:27.166Z,1.35
2018-03-24T05:29:26.892Z,1.41
2018-03-24T05:30:27.146Z,1.49
2018-03-24T05:31:27.123Z,1.41
2018-03-24T05:32:26.860Z,1.42
2018-03-24T05:33:26.850Z,1.41
2018-03-24T05:34:26.852Z,1.4
2018-03-24T05:35:26.824Z,1.45
2018-03-24T05:36:26.812Z,1.41
2018-03-24T05:37:27.057Z,1.45
2018-03-24T05:38:26.806Z,1.4
2018-03-24T05:39:27.034Z,1.44
2018-03-24T05:40:27.038Z,1.45
2018-03-24T05:41:27.013Z,1.48
2018-03-24T05:42:27.051Z,1.44
2018-03-24T05:43:26.482Z,1.48
2018-03-24T05:44:27.007Z,1.45
2018-03-24T05:45:26.724Z,1.45
2018-03-24T05:46:26.966Z,1.48
2018-03-24T05:47:26.947Z,1.44
2018-03-24T05:48:26.950Z,1.52
2018-03-24T05:49:26.931Z,1.5
2018-03-24T05:50:26.675Z,1.53
2018-03-24T05:51:26.908Z,1.56
2018-03-24T05:52:26.681Z,1.59
2018-03-24T05:53:26.899Z,1.68
2018-03-24T05:54:26.630Z,1.62
2018-03-24T05:55:26.616Z,1.66
2018-03-24T05:56:26.608Z,1.77
2018-03-24T05:57:26.845Z,1.76
2018-03-24T05:58:26.579Z,1.84
2018-03-24T05:59:26.568Z,1.76
2018-03-24T06:00:26.811Z,1.84
2018-03-24T06:01:26.594Z,1.85
2018-03-24T06:02:26.789Z,1.85
2018-03-24T06:03:26.786Z,1.94
2018-03-24T06:04:26.522Z,2.04
2018-03-24T06:05:26.765Z,2.07
2018-03-24T06:06:26.758Z,2.07
2018-03-24T06:07:26.500Z,2.15
2018-03-24T06:08:26.485Z,2.14
2018-03-24T06:09:26.731Z,2.07
2018-03-24T06:10:26.764Z,2.13
2018-03-24T06:11:26.714Z,2.15
2018-03-24T06:12:26.481Z,2.22
2018-03-24T06:13:26.705Z,2.32
2018-03-24T06:14:26.706Z,2.38
2018-03-24T06:15:26.674Z,2.43
2018-03-24T06:16:26.405Z,2.47
2018-03-24T06:17:26.405Z,2.38
2018-03-24T06:26:40.089Z,2.83
2018-03-24T06:27:39.777Z,2.9
2018-03-24T06:28:40.022Z,2.8
2018-03-24T06:29:40.261Z,2.82
2018-03-24T06:30:39.986Z,2.9
2018-03-24T06:31:40.244Z,2.92
2018-03-24T06:32:39.733Z,2.85
2018-03-24T06:33:39.967Z,3
2018-03-24T06:34:40.218Z,3.04
2018-03-24T06:35:39.939Z,2.97
2018-03-24T06:36:40.185Z,3.05
2018-03-24T06:37:40.167Z,3.05
2018-03-24T06:38:40.158Z,3.08
2018-03-24T06:39:39.934Z,3.22
2018-03-24T06:40:40.153Z,3.34
2018-03-24T06:41:40.446Z,3.41
2018-03-24T06:42:40.164Z,3.47
2018-03-24T06:43:40.107Z,3.53
2018-03-24T06:44:39.843Z,3.5
2018-03-24T06:45:39.836Z,3.58
2018-03-24T06:46:39.814Z,3.58
2018-03-24T06:47:40.089Z,3.56
2018-03-24T06:48:39.798Z,3.59
2018-03-24T06:49:40.044Z,3.63
2018-03-24T06:50:40.036Z,3.74
2018-03-24T06:51:40.038Z,3.77
2018-03-24T06:52:40.059Z,3.76
2018-03-24T06:53:39.754Z,3.81
2018-03-24T06:54:40.008Z,3.91
2018-03-24T06:55:39.985Z,4.28
2018-03-24T06:56:40.041Z,4.75
2018-03-24T06:57:39.479Z,4.96
2018-03-24T06:58:39.986Z,5.1
2018-03-24T06:59:39.968Z,5.33
2018-03-24T07:00:40.097Z,5.73
2018-03-24T07:01:39.947Z,5.87
2018-03-24T07:02:39.941Z,5.98
2018-03-24T07:03:39.924Z,6.14
2018-03-24T07:04:39.676Z,6.41
2018-03-24T07:05:39.660Z,6.48
2018-03-24T07:06:39.922Z,6.59
2018-03-24T07:07:39.394Z,6.6
2018-03-24T07:08:39.926Z,6.87
2018-03-24T07:09:39.915Z,7.14
2018-03-24T07:10:39.628Z,7.48
2018-03-24T07:11:39.365Z,7.7
2018-03-24T07:12:39.881Z,7.9
2018-03-24T07:13:39.884Z,8.03
2018-03-24T07:14:39.864Z,8.56
2018-03-24T07:15:39.600Z,9.08
2018-03-24T07:16:39.602Z,9.54
2018-03-24T07:17:39.852Z,10.13
2018-03-24T07:18:39.845Z,10.57
2018-03-24T07:19:39.839Z,10.93
2018-03-24T07:20:39.838Z,11.18
2018-03-24T07:21:39.326Z,11.32
2018-03-24T07:22:39.331Z,11.59
2018-03-24T07:23:39.836Z,12.28
2018-03-24T07:24:39.601Z,12.65
2018-03-24T07:25:39.833Z,13.05
2018-03-24T07:26:39.882Z,13.52
2018-03-24T07:27:39.832Z,13.63
2018-03-24T07:28:39.578Z,13.54
2018-03-24T07:29:39.324Z,13.38
2018-03-24T07:30:39.575Z,13.04
2018-03-24T07:31:39.593Z,13.13
2018-03-24T07:32:39.874Z,13.3
2018-03-24T07:33:39.581Z,13.62
2018-03-24T07:34:39.570Z,13.47
2018-03-24T07:35:39.858Z,13.28
2018-03-24T07:36:39.832Z,13.04
2018-03-24T07:37:39.839Z,13.33
2018-03-24T07:38:39.847Z,13.3
2018-03-24T07:39:39.585Z,13.44
2018-03-24T07:40:39.594Z,13.3
2018-03-24T07:41:39.637Z,13.13
2018-03-24T07:42:39.340Z,13
2018-03-24T07:43:39.866Z,13.01
2018-03-24T07:44:39.347Z,13
2018-03-24T07:45:39.333Z,13.01
2018-03-24T07:46:39.846Z,12.9
2018-03-24T07:47:39.687Z,12.73
2018-03-24T07:48:39.849Z,12.4
2018-03-24T07:49:39.339Z,12.31
2018-03-24T07:50:39.594Z,12.07
2018-03-24T07:51:39.620Z,12.04
2018-03-24T07:52:39.861Z,12.06
2018-03-24T07:53:39.856Z,12.07
2018-03-24T07:54:39.347Z,12.2
2018-03-24T07:55:39.603Z,12.31
2018-03-24T07:56:39.925Z,12.54
2018-03-24T07:57:39.859Z,12.98
2018-03-24T07:58:39.867Z,13.65
2018-03-24T07:59:39.349Z,14.11
2018-03-24T08:00:39.876Z,14.68
2018-03-24T08:01:39.865Z,15.11
2018-03-24T08:02:39.612Z,15.27
2018-03-24T08:03:39.620Z,15.15
2018-03-24T08:04:39.625Z,15.03
2018-03-24T08:05:39.880Z,15.35
2018-03-24T08:06:39.616Z,15.37
2018-03-24T08:07:39.891Z,15.58
2018-03-24T08:08:39.900Z,15.68
2018-03-24T08:09:39.973Z,15.8
2018-03-24T08:10:39.377Z,16.21
2018-03-24T08:11:40.201Z,16.31
2018-03-24T08:12:39.899Z,16.38
2018-03-24T08:13:39.646Z,16.54
2018-03-24T08:14:39.900Z,16.53
2018-03-24T08:15:39.899Z,16.35
2018-03-24T08:16:39.901Z,16.35
2018-03-24T08:17:39.428Z,16.32
2018-03-24T08:18:39.657Z,16.61
2018-03-24T08:19:39.673Z,16.74
2018-03-24T08:20:39.932Z,16.75
2018-03-24T08:21:39.686Z,16.69
2018-03-24T08:22:39.970Z,16.41
2018-03-24T08:23:39.930Z,16.33
2018-03-24T08:24:39.418Z,16.61
2018-03-24T08:25:39.937Z,16.54
2018-03-24T08:26:39.985Z,15.91
2018-03-24T08:27:39.940Z,15.35
2018-03-24T08:28:39.682Z,14.63
2018-03-24T08:29:39.961Z,14
2018-03-24T08:30:39.962Z,13.18
2018-03-24T08:31:39.954Z,12.49
2018-03-24T08:32:39.962Z,11.78
2018-03-24T08:33:39.962Z,11.43
2018-03-24T08:34:39.706Z,11.27
2018-03-24T08:35:39.967Z,10.92
2018-03-24T08:36:39.968Z,10.59
2018-03-24T08:37:39.981Z,10.38
2018-03-24T08:38:39.966Z,10.16
2018-03-24T08:39:39.712Z,10.09
2018-03-24T08:40:39.711Z,9.94
2018-03-24T08:41:39.972Z,9.95
2018-03-24T08:42:39.969Z,9.83
2018-03-24T08:43:39.968Z,9.82
2018-03-24T08:44:39.751Z,9.74
2018-03-24T08:45:39.973Z,9.68
2018-03-24T08:46:39.972Z,9.55
2018-03-24T08:47:39.971Z,9.65
2018-03-24T08:48:39.972Z,9.62
2018-03-24T08:49:39.971Z,9.68
2018-03-24T08:50:39.709Z,9.66
2018-03-24T08:51:39.710Z,9.66
2018-03-24T08:52:39.708Z,9.62
2018-03-24T08:53:39.960Z,9.61
2018-03-24T08:54:39.696Z,9.64
2018-03-24T08:55:39.958Z,9.58
2018-03-24T08:56:39.996Z,9.62
2018-03-24T08:57:39.691Z,9.51
2018-03-24T08:58:39.688Z,9.62
2018-03-24T08:59:40.934Z,9.56
2018-03-24T09:00:39.839Z,9.58
2018-03-24T09:01:39.946Z,9.59
2018-03-24T09:02:39.678Z,9.65
2018-03-24T09:03:39.934Z,9.79
2018-03-24T09:04:39.675Z,9.72
2018-03-24T09:05:39.945Z,9.77
2018-03-24T09:06:40.274Z,9.64
2018-03-24T09:07:39.940Z,9.73
2018-03-24T09:08:39.913Z,9.72
2018-03-24T09:09:39.927Z,9.8
2018-03-24T09:10:39.748Z,9.69
2018-03-24T09:11:39.903Z,9.58
2018-03-24T09:12:39.649Z,9.64
2018-03-24T09:13:39.660Z,9.62
2018-03-24T09:14:39.943Z,9.62
2018-03-24T09:15:39.897Z,9.64
2018-03-24T09:16:39.896Z,9.73
2018-03-24T09:17:39.640Z,9.73
2018-03-24T09:18:39.656Z,9.87
2018-03-24T09:19:39.879Z,9.89
2018-03-24T09:20:39.890Z,9.95
2018-03-24T09:21:40.018Z,9.98
2018-03-24T09:22:39.909Z,10.05
2018-03-24T09:23:40.723Z,10.09
2018-03-24T09:24:40.132Z,10.19
2018-03-24T09:25:39.634Z,10.13
2018-03-24T09:26:39.647Z,10.05
2018-03-24T09:27:39.604Z,10.09
2018-03-24T09:28:39.596Z,10.15
2018-03-24T09:29:39.842Z,10.12
2018-03-24T09:30:39.859Z,10.23
2018-03-24T09:31:39.678Z,10.22
2018-03-24T09:32:39.583Z,10.26
2018-03-24T09:33:39.577Z,10.28
2018-03-24T09:34:39.832Z,10.2
2018-03-24T09:35:39.570Z,10.2
2018-03-24T09:36:39.841Z,10.16
2018-03-24T09:37:39.564Z,10.1
2018-03-24T09:38:39.850Z,10.13
2018-03-24T09:39:39.812Z,10.19
2018-03-24T09:40:39.801Z,10.17
2018-03-24T09:41:39.901Z,10.3
2018-03-24T09:42:39.808Z,10.33
2018-03-24T09:43:39.543Z,10.31
2018-03-24T09:44:39.537Z,10.33
2018-03-24T09:45:39.793Z,10.3
2018-03-24T09:46:40.983Z,10.3
2018-03-24T09:47:39.536Z,10.35
2018-03-24T09:48:39.524Z,10.41
2018-03-24T09:49:39.523Z,10.46
2018-03-24T09:50:39.838Z,10.41
2018-03-24T09:51:39.554Z,10.38
2018-03-24T09:52:40.907Z,10.37
2018-03-24T09:53:40.110Z,10.44
2018-03-24T09:54:39.597Z,10.49
2018-03-24T09:55:40.108Z,10.56
2018-03-24T09:56:40.100Z,10.49
2018-03-24T09:57:40.270Z,10.49
2018-03-24T09:58:40.514Z,10.54
2018-03-24T09:59:39.301Z,10.54
2018-03-24T10:00:39.899Z,10.51
2018-03-24T10:01:39.788Z,10.46
2018-03-24T10:02:39.857Z,10.41
2018-03-24T10:03:40.191Z,10.42
2018-03-24T10:04:40.235Z,10.34
2018-03-24T10:05:39.704Z,10.37
2018-03-24T10:06:40.159Z,10.35
2018-03-24T10:07:40.063Z,10.51
2018-03-24T10:08:39.437Z,10.44
2018-03-24T10:09:40.070Z,10.54
2018-03-24T10:10:39.933Z,10.42
2018-03-24T10:11:40.038Z,10.42
2018-03-24T10:12:39.711Z,10.44
2018-03-24T10:13:39.738Z,10.4
2018-03-24T10:14:39.665Z,10.37
2018-03-24T10:15:39.369Z,10.41
2018-03-24T10:16:39.822Z,10.38
2018-03-24T10:17:39.679Z,10.4
2018-03-24T10:18:39.648Z,10.42
2018-03-24T10:19:39.895Z,10.49
2018-03-24T10:20:39.509Z,10.48
2018-03-24T10:21:39.568Z,10.53
2018-03-24T10:22:39.723Z,10.56
2018-03-24T10:23:39.533Z,10.59
2018-03-24T10:24:40.018Z,10.69
2018-03-24T10:25:39.861Z,10.64
2018-03-24T10:26:39.918Z,10.72
2018-03-24T10:27:39.854Z,10.78
2018-03-24T10:57:45.812Z,10.84
2018-03-24T10:58:45.551Z,10.84
2018-03-24T10:59:45.781Z,10.82
2018-03-24T11:00:45.773Z,10.92
2018-03-24T11:01:45.759Z,10.84
2018-03-24T11:02:45.498Z,10.81
2018-03-24T11:03:45.541Z,10.84
2018-03-24T11:04:45.491Z,10.79
2018-03-24T11:05:45.731Z,10.75
2018-03-24T11:06:45.482Z,10.78
2018-03-24T11:07:45.543Z,10.84
2018-03-24T11:08:45.720Z,10.87
2018-03-24T11:09:45.503Z,11.1
2018-03-24T11:10:45.717Z,11.04
2018-03-24T11:11:45.486Z,11.05
2018-03-24T11:12:45.507Z,11.1
2018-03-24T11:13:45.698Z,11.05
2018-03-24T11:14:45.709Z,11.15
2018-03-24T11:15:45.683Z,11.12
2018-03-24T11:16:45.486Z,11.15
2018-03-24T11:17:45.820Z,11.29
2018-03-24T11:18:45.174Z,11.19
2018-03-24T11:19:45.421Z,11.27
2018-03-24T11:20:45.669Z,11.17
2018-03-24T11:21:45.440Z,11.25
2018-03-24T11:22:45.451Z,11.4
2018-03-24T11:23:45.664Z,11.35
2018-03-24T11:24:45.668Z,11.35
2018-03-24T11:25:45.147Z,11.44
2018-03-24T11:26:45.153Z,11.48
2018-03-24T11:27:45.651Z,11.45
2018-03-24T11:28:45.648Z,11.37
2018-03-24T11:29:45.655Z,11.4
2018-03-24T11:30:45.381Z,11.27
2018-03-24T11:31:45.641Z,11.23
2018-03-24T11:32:45.654Z,11.19
2018-03-24T11:33:45.398Z,11.33
2018-03-24T11:34:45.635Z,11.41
2018-03-24T11:35:45.645Z,11.27
2018-03-24T11:36:45.444Z,11.33
2018-03-24T11:37:45.454Z,11.33
2018-03-24T11:38:45.240Z,11.4
2018-03-24T11:39:45.367Z,11.4
2018-03-24T11:40:45.967Z,11.45
2018-03-24T11:41:45.359Z,11.4
2018-03-24T11:42:45.512Z,11.41
2018-03-24T11:43:45.107Z,11.45
2018-03-24T11:44:45.617Z,11.45
2018-03-24T11:45:45.695Z,11.5
2018-03-24T11:46:45.346Z,11.48
2018-03-24T11:47:45.363Z,11.52
2018-03-24T11:48:45.346Z,11.57
2018-03-24T11:49:45.614Z,11.62
2018-03-24T11:50:45.606Z,11.59
2018-03-24T11:51:45.715Z,11.7
2018-03-24T11:52:45.590Z,11.7
2018-03-24T11:53:45.589Z,11.75
2018-03-24T11:54:45.326Z,11.77
2018-03-24T11:55:45.598Z,11.78
2018-03-24T11:56:45.622Z,11.77
2018-03-24T11:57:45.632Z,11.83
2018-03-24T11:58:45.350Z,11.75
2018-03-24T11:59:45.604Z,11.8
2018-03-24T12:00:45.592Z,11.81
2018-03-24T12:01:45.551Z,11.83
2018-03-24T12:02:45.565Z,11.81
2018-03-24T12:03:45.576Z,11.72
2018-03-24T12:04:45.303Z,11.77
2018-03-24T12:05:45.086Z,11.68
2018-03-24T12:06:45.381Z,11.59
2018-03-24T12:07:45.324Z,11.7
2018-03-24T12:08:45.539Z,11.69
2018-03-24T12:09:45.332Z,11.75
2018-03-24T12:10:45.376Z,11.72
2018-03-24T12:11:45.575Z,11.72
2018-03-24T12:12:45.032Z,11.69
2018-03-24T12:13:45.540Z,11.72
2018-03-24T12:14:45.288Z,11.75
2018-03-24T12:15:45.532Z,11.75
2018-03-24T12:16:45.523Z,11.68
2018-03-24T12:17:45.553Z,11.69
2018-03-24T12:18:45.014Z,11.78
2018-03-24T12:19:45.268Z,11.75
2018-03-24T12:20:44.996Z,11.78
2018-03-24T12:21:45.254Z,11.73
2018-03-24T12:22:45.521Z,11.69
2018-03-24T12:23:45.503Z,11.77
2018-03-24T12:24:45.250Z,11.72
2018-03-24T12:25:45.273Z,11.73
2018-03-24T12:26:44.999Z,11.73
2018-03-24T12:27:45.300Z,11.83
2018-03-24T12:28:45.503Z,11.88
2018-03-24T12:29:44.973Z,11.88
2018-03-24T12:30:45.474Z,11.9
2018-03-24T12:31:45.243Z,12.02
2018-03-24T12:32:45.232Z,12.03
2018-03-24T12:33:45.234Z,12.04
2018-03-24T12:34:45.260Z,11.99
2018-03-24T12:35:45.494Z,11.84
2018-03-24T12:36:45.486Z,11.86
2018-03-24T12:37:45.246Z,11.9
2018-03-24T12:38:45.216Z,11.94
2018-03-24T12:39:45.512Z,11.81
2018-03-24T12:40:45.273Z,11.78
2018-03-24T12:41:45.560Z,11.8
2018-03-24T12:42:45.554Z,11.84
2018-03-24T12:43:45.209Z,11.83
2018-03-24T12:44:45.510Z,11.8
2018-03-24T12:45:44.984Z,11.86
2018-03-24T12:46:45.478Z,12.03
2018-03-24T12:47:45.200Z,11.99
2018-03-24T12:48:45.220Z,12.09
2018-03-24T12:49:45.581Z,12.18
2018-03-24T12:50:45.463Z,12.13
2018-03-24T12:51:45.203Z,12.12
2018-03-24T12:52:45.582Z,12.2
2018-03-24T12:53:45.477Z,12.18
2018-03-24T12:54:45.439Z,12.06
2018-03-24T12:55:45.439Z,12.12
2018-03-24T12:56:45.182Z,12.09
2018-03-24T12:57:45.496Z,11.99
2018-03-24T12:58:45.183Z,11.97
2018-03-24T12:59:45.605Z,12.02
2018-03-24T13:00:45.428Z,11.99
2018-03-24T13:01:45.623Z,11.99
2018-03-24T13:02:45.152Z,12.03
2018-03-24T13:03:45.149Z,12.09
2018-03-24T13:04:45.138Z,12.07
2018-03-24T13:05:45.146Z,12.06
2018-03-24T13:06:44.967Z,11.95
2018-03-24T13:07:45.159Z,11.95
2018-03-24T13:08:45.403Z,11.94
2018-03-24T13:09:45.144Z,12.04
2018-03-24T13:10:45.404Z,12.1
2018-03-24T13:11:45.414Z,12.15
2018-03-24T13:12:45.192Z,12.21
2018-03-24T13:13:45.386Z,12.17
2018-03-24T13:14:45.439Z,12.2
2018-03-24T13:15:45.364Z,12.2
2018-03-24T13:16:45.101Z,12.07
2018-03-24T13:17:45.352Z,12
2018-03-24T13:18:45.357Z,12.04
2018-03-24T13:19:45.377Z,11.91
2018-03-24T13:20:45.246Z,11.9
2018-03-24T13:21:45.348Z,11.86
2018-03-24T13:22:45.466Z,11.97
2018-03-24T13:23:45.088Z,12.12
2018-03-24T13:24:44.941Z,12.13
2018-03-24T13:25:45.350Z,12.09
2018-03-24T13:26:45.338Z,12.04
2018-03-24T13:27:45.219Z,12.07
2018-03-24T13:28:45.079Z,12.04
2018-03-24T13:29:45.330Z,12.02
2018-03-24T13:30:45.331Z,12.03
2018-03-24T13:31:45.328Z,11.86
2018-03-24T13:32:45.327Z,11.91
2018-03-24T13:33:45.069Z,11.9
2018-03-24T13:34:44.820Z,11.91
2018-03-24T13:35:45.329Z,12.06
2018-03-24T13:36:45.324Z,12.09
2018-03-24T13:37:45.053Z,12.17
2018-03-24T13:38:45.089Z,12.15
2018-03-24T13:39:45.306Z,12.22
2018-03-24T13:40:45.306Z,12.18
2018-03-24T13:41:45.294Z,12.17
2018-03-24T13:42:45.353Z,12.27
2018-03-24T13:43:45.302Z,12.2
2018-03-24T13:44:45.057Z,12.22
2018-03-24T13:45:45.037Z,12.22
2018-03-24T13:46:45.280Z,12.27
2018-03-24T13:47:45.291Z,12.35
2018-03-24T13:48:45.041Z,12.28